createdAt,value
2023-09-22T00:00:19.152Z,2.15
2023-09-22T00:02:48.547Z,2.05
2023-09-22T00:05:17.759Z,2.17
2023-09-22T00:07:47.195Z,2.30
2023-09-22T00:10:17.328Z,2.20
2023-09-22T00:12:47.748Z,2.45
2023-09-22T00:15:17.410Z,2.28
2023-09-22T00:17:46.428Z,1.90
2023-09-22T00:20:16.510Z,2.17
2023-09-22T00:22:45.567Z,2.10
2023-09-22T00:25:14.911Z,2.55
2023-09-22T00:27:45.150Z,2.00
2023-09-22T00:30:14.132Z,2.27
2023-09-22T00:32:43.252Z,2.20
2023-09-22T00:35:13.712Z,2.00
2023-09-22T00:37:42.711Z,2.00
2023-09-22T00:40:13.759Z,3.03
2023-09-22T00:42:42.887Z,2.50
2023-09-22T00:45:15.358Z,2.65
2023-09-22T00:47:44.276Z,2.53
2023-09-22T00:50:13.746Z,2.38
2023-09-22T00:52:43.427Z,2.55
2023-09-22T00:55:12.471Z,2.70
2023-09-22T00:57:42.040Z,2.47
2023-09-22T01:00:14.728Z,3.05
2023-09-22T01:02:43.636Z,2.00
2023-09-22T01:05:12.725Z,2.17
2023-09-22T01:07:41.766Z,2.27
2023-09-22T01:10:11.861Z,3.10
2023-09-22T01:12:40.852Z,2.25
2023-09-22T01:15:12.881Z,2.60
2023-09-22T01:17:41.745Z,2.70
2023-09-22T01:20:11.780Z,2.37
2023-09-22T01:22:44.797Z,2.95
2023-09-22T01:25:13.996Z,2.22
2023-09-22T01:27:42.901Z,2.75
2023-09-22T01:30:16.842Z,2.42
2023-09-22T01:32:45.639Z,2.80
2023-09-22T01:35:14.421Z,2.70
2023-09-22T01:37:56.463Z,2.53
2023-09-22T01:40:25.156Z,2.75
2023-09-22T01:42:55.280Z,2.83
2023-09-22T01:45:24.292Z,2.90
2023-09-22T01:47:55.380Z,2.50
2023-09-22T01:50:24.274Z,2.65
2023-09-22T01:52:55.206Z,3.05
2023-09-22T01:55:24.158Z,2.60
2023-09-22T01:57:53.848Z,2.40
2023-09-22T02:00:23.100Z,2.45
2023-09-22T02:02:53.179Z,2.50
2023-09-22T02:05:22.165Z,2.63
2023-09-22T02:07:51.431Z,2.90
2023-09-22T02:10:21.981Z,2.90
2023-09-22T02:12:51.323Z,2.90
2023-09-22T02:15:20.453Z,2.60
2023-09-22T02:17:49.669Z,3.30
2023-09-22T02:20:23.369Z,2.60
2023-09-22T02:22:56.868Z,2.57
2023-09-22T02:25:27.974Z,3.08
2023-09-22T02:28:00.195Z,2.58
2023-09-22T02:30:29.272Z,2.88
2023-09-22T02:32:58.249Z,3.10
2023-09-22T02:35:27.113Z,2.73
2023-09-22T02:37:57.113Z,2.72
2023-09-22T02:40:27.204Z,2.75
2023-09-22T02:42:56.103Z,2.78
2023-09-22T02:45:25.327Z,3.38
2023-09-22T02:47:56.035Z,3.27
2023-09-22T02:50:24.968Z,3.13
2023-09-22T02:52:54.135Z,3.72
2023-09-22T02:55:22.850Z,3.15
2023-09-22T02:57:55.452Z,3.53
2023-09-22T03:00:24.466Z,3.27
2023-09-22T03:02:54.663Z,3.50
2023-09-22T03:05:23.577Z,3.67
2023-09-22T03:07:56.496Z,3.40
2023-09-22T03:10:26.376Z,3.60
2023-09-22T03:12:59.241Z,3.10
2023-09-22T03:15:28.767Z,4.35
2023-09-22T03:18:00.540Z,3.60
2023-09-22T03:20:30.103Z,3.63
2023-09-22T03:22:59.485Z,3.42
2023-09-22T03:25:28.763Z,3.90
2023-09-22T03:27:59.180Z,3.55
2023-09-22T03:30:28.299Z,4.35
2023-09-22T03:33:00.239Z,3.88
2023-09-22T03:35:29.883Z,4.10
2023-09-22T03:38:00.586Z,3.87
2023-09-22T03:40:34.017Z,4.25
2023-09-22T03:43:04.995Z,4.03
2023-09-22T03:45:36.574Z,4.13
2023-09-22T03:48:07.104Z,4.35
2023-09-22T03:50:37.972Z,3.60
2023-09-22T03:53:06.938Z,4.85
2023-09-22T03:55:35.773Z,4.90
2023-09-22T03:58:07.720Z,5.13
2023-09-22T04:00:36.571Z,4.32
2023-09-22T04:03:09.339Z,4.10
2023-09-22T04:05:39.161Z,3.97
2023-09-22T04:08:08.302Z,4.40
2023-09-22T04:10:37.064Z,4.47
2023-09-22T04:13:07.499Z,4.22
2023-09-22T04:15:37.023Z,4.37
2023-09-22T04:18:08.330Z,4.00
2023-09-22T04:20:38.866Z,3.97
2023-09-22T04:23:07.755Z,4.30
2023-09-22T04:25:39.173Z,4.47
2023-09-22T04:28:14.249Z,4.33
2023-09-22T04:30:43.524Z,4.50
2023-09-22T04:33:13.973Z,4.38
2023-09-22T04:35:45.581Z,3.60
2023-09-22T04:38:15.797Z,4.13
2023-09-22T04:40:45.819Z,4.43
2023-09-22T04:43:18.393Z,3.97
2023-09-22T04:45:47.625Z,4.70
2023-09-22T04:48:17.619Z,3.75
2023-09-22T04:50:56.024Z,4.88
2023-09-22T04:53:25.631Z,4.17
2023-09-22T04:56:04.731Z,3.83
2023-09-22T04:58:39.317Z,3.85
2023-09-22T05:01:09.883Z,3.70
2023-09-22T05:03:41.954Z,3.63
2023-09-22T05:06:11.186Z,4.70
2023-09-22T05:08:42.383Z,3.88
2023-09-22T05:11:12.416Z,3.83
2023-09-22T05:13:42.694Z,4.20
2023-09-22T05:16:19.965Z,3.60
2023-09-22T05:18:51.379Z,3.90
2023-09-22T05:21:20.722Z,4.25
2023-09-22T05:23:49.792Z,4.18
2023-09-22T05:26:27.520Z,3.60
2023-09-22T05:29:00.788Z,4.05
2023-09-22T05:31:30.007Z,3.83
2023-09-22T05:34:01.901Z,3.83
2023-09-22T05:36:31.341Z,4.10
2023-09-22T05:39:00.430Z,4.07
2023-09-22T05:41:33.710Z,3.75
2023-09-22T05:44:03.977Z,3.93
2023-09-22T05:46:36.392Z,3.75
2023-09-22T05:49:08.206Z,4.15
2023-09-22T05:51:40.073Z,3.60
2023-09-22T05:54:12.020Z,3.53
2023-09-22T05:56:41.521Z,3.60
2023-09-22T05:59:11.821Z,3.25
2023-09-22T06:01:40.732Z,3.30
2023-09-22T06:04:10.890Z,3.50
2023-09-22T06:06:39.835Z,3.38
2023-09-22T06:09:12.334Z,2.93
2023-09-22T06:11:42.288Z,3.33
2023-09-22T06:14:13.604Z,3.50
2023-09-22T06:16:42.531Z,3.13
2023-09-22T06:19:12.374Z,2.92
2023-09-22T06:21:41.965Z,3.13
2023-09-22T06:24:12.468Z,3.50
2023-09-22T06:26:41.677Z,3.53
2023-09-22T06:29:11.836Z,3.58
2023-09-22T06:31:40.661Z,3.50
2023-09-22T06:34:12.062Z,3.70
2023-09-22T06:36:40.962Z,3.55
2023-09-22T06:39:09.847Z,3.80
2023-09-22T06:41:38.755Z,3.65
2023-09-22T06:44:14.145Z,3.00
2023-09-22T06:46:43.374Z,3.03
2023-09-22T06:49:12.319Z,3.08
2023-09-22T06:51:41.116Z,3.08
2023-09-22T06:54:12.105Z,2.95
2023-09-22T06:56:50.007Z,2.92
2023-09-22T06:59:23.172Z,3.50
2023-09-22T07:01:52.129Z,2.78
2023-09-22T07:04:22.641Z,3.08
2023-09-22T07:06:54.627Z,2.83
2023-09-22T07:09:23.907Z,3.00
2023-09-22T07:11:53.200Z,3.37
2023-09-22T07:14:26.055Z,2.90
2023-09-22T07:16:55.423Z,3.85
2023-09-22T07:19:24.338Z,2.95
2023-09-22T07:21:53.180Z,2.97
2023-09-22T07:24:22.050Z,2.83
2023-09-22T07:26:51.520Z,2.92
2023-09-22T07:29:20.317Z,3.25
2023-09-22T07:31:51.083Z,2.83
2023-09-22T07:34:19.914Z,3.17
2023-09-22T07:36:53.677Z,2.60
2023-09-22T07:39:27.828Z,3.47
2023-09-22T07:41:59.521Z,2.78
2023-09-22T07:44:28.478Z,3.20
2023-09-22T07:47:02.272Z,3.25
2023-09-22T07:49:31.456Z,2.83
2023-09-22T07:52:00.637Z,2.28
2023-09-22T07:54:32.533Z,2.75
2023-09-22T07:57:03.145Z,2.90
2023-09-22T07:59:32.584Z,3.80
2023-09-22T08:02:06.609Z,3.53
2023-09-22T08:04:36.253Z,3.22
2023-09-22T08:07:07.081Z,3.05
2023-09-22T08:09:38.416Z,2.97
2023-09-22T08:12:11.859Z,3.45
2023-09-22T08:14:56.788Z,2.77
2023-09-22T08:17:32.505Z,3.20
2023-09-22T08:20:02.034Z,3.20
2023-09-22T08:22:32.777Z,3.40
2023-09-22T08:25:02.603Z,2.92
2023-09-22T08:27:37.188Z,3.37
2023-09-22T08:30:12.173Z,3.38
2023-09-22T08:32:45.919Z,2.97
2023-09-22T08:35:17.860Z,2.90
2023-09-22T08:37:47.204Z,3.50
2023-09-22T08:40:19.305Z,2.97
2023-09-22T08:42:54.748Z,3.40
2023-09-22T08:45:24.021Z,3.22
2023-09-22T08:47:54.621Z,2.97
2023-09-22T08:50:24.747Z,3.80
2023-09-22T08:52:54.884Z,2.87
2023-09-22T08:55:28.973Z,3.22
2023-09-22T08:57:57.939Z,3.58
2023-09-22T09:00:30.831Z,3.42
2023-09-22T09:03:11.098Z,4.22
2023-09-22T09:05:42.595Z,3.13
2023-09-22T09:08:17.052Z,3.78
2023-09-22T09:10:49.547Z,3.95
2023-09-22T09:13:25.145Z,3.33
2023-09-22T09:16:07.862Z,3.25
2023-09-22T09:18:38.606Z,3.90
2023-09-22T09:21:11.614Z,3.92
2023-09-22T09:23:54.427Z,3.72
2023-09-22T09:26:29.208Z,3.70
2023-09-22T09:29:00.083Z,3.83
2023-09-22T09:31:47.257Z,3.33
2023-09-22T09:34:18.412Z,3.75
2023-09-22T09:36:47.374Z,3.72
2023-09-22T09:39:16.531Z,3.75
2023-09-22T09:41:46.132Z,3.00
2023-09-22T09:44:17.725Z,3.40
2023-09-22T09:46:46.859Z,3.42
2023-09-22T09:49:17.960Z,3.42
2023-09-22T09:51:54.036Z,3.22
2023-09-22T09:54:28.390Z,3.65
2023-09-22T09:57:00.308Z,3.17
2023-09-22T09:59:29.286Z,3.40
2023-09-22T10:01:58.446Z,3.63
2023-09-22T10:04:30.682Z,3.60
2023-09-22T10:07:00.596Z,3.47
2023-09-22T10:09:31.995Z,3.37
2023-09-22T10:12:04.869Z,3.28
2023-09-22T10:14:48.853Z,3.38
2023-09-22T10:17:24.116Z,3.75
2023-09-22T10:19:58.393Z,3.10
2023-09-22T10:22:29.789Z,3.13
2023-09-22T10:25:35.033Z,3.38
2023-09-22T10:28:08.025Z,2.72
2023-09-22T10:31:05.404Z,3.83
2023-09-22T10:33:35.024Z,3.55
2023-09-22T10:36:08.215Z,3.57
2023-09-22T10:38:59.738Z,3.92
2023-09-22T10:41:29.904Z,3.60
2023-09-22T10:44:03.297Z,3.45
2023-09-22T10:46:32.787Z,3.28
2023-09-22T10:49:02.315Z,3.90
2023-09-22T10:51:47.765Z,3.75
2023-09-22T10:54:19.381Z,4.00
2023-09-22T10:56:49.067Z,3.80
2023-09-22T10:59:18.259Z,3.47
2023-09-22T11:01:48.209Z,3.30
2023-09-22T11:04:18.839Z,3.97
2023-09-22T11:06:49.398Z,4.22
2023-09-22T11:09:18.375Z,4.28
2023-09-22T11:11:48.443Z,3.92
2023-09-22T11:14:22.491Z,3.90
2023-09-22T11:16:51.771Z,3.58
2023-09-22T11:19:20.759Z,4.90
2023-09-22T11:21:52.478Z,5.40
2023-09-22T11:24:22.276Z,3.95
2023-09-22T11:26:51.237Z,3.90
2023-09-22T11:29:20.111Z,4.30
2023-09-22T11:31:51.918Z,4.05
2023-09-22T11:34:24.392Z,3.55
2023-09-22T11:36:56.455Z,3.95
2023-09-22T11:39:31.282Z,4.23
2023-09-22T11:42:03.080Z,4.22
2023-09-22T11:44:31.945Z,4.10
2023-09-22T11:47:01.096Z,3.72
2023-09-22T11:49:38.634Z,4.60
2023-09-22T11:52:09.154Z,4.13
2023-09-22T11:54:37.931Z,5.32
2023-09-22T11:57:07.920Z,4.93
2023-09-22T11:59:38.401Z,4.20
2023-09-22T12:02:08.107Z,3.85
2023-09-22T12:04:39.797Z,4.27
2023-09-22T12:07:11.333Z,4.25
2023-09-22T12:09:41.323Z,4.53
2023-09-22T12:12:11.318Z,4.63
2023-09-22T12:14:41.890Z,4.10
2023-09-22T12:17:11.282Z,4.20
2023-09-22T12:19:41.832Z,4.35
2023-09-22T12:22:12.065Z,4.47
2023-09-22T12:24:41.138Z,4.03
2023-09-22T12:27:10.033Z,4.22
2023-09-22T12:29:38.869Z,3.83
2023-09-22T12:32:09.001Z,4.40
2023-09-22T12:34:38.061Z,4.55
2023-09-22T12:37:07.315Z,4.20
2023-09-22T12:39:37.824Z,4.05
2023-09-22T12:42:07.252Z,4.63
2023-09-22T12:44:37.026Z,3.88
2023-09-22T12:47:09.531Z,4.40
2023-09-22T12:49:39.361Z,4.30
2023-09-22T12:52:09.081Z,4.72
2023-09-22T12:54:39.249Z,3.93
2023-09-22T12:57:08.584Z,4.18
2023-09-22T12:59:37.336Z,3.67
2023-09-22T13:02:08.739Z,4.00
2023-09-22T13:04:37.598Z,4.30
2023-09-22T13:07:06.532Z,3.87
2023-09-22T13:09:35.688Z,3.47
2023-09-22T13:12:06.104Z,4.05
2023-09-22T13:14:34.946Z,4.10
2023-09-22T13:17:03.895Z,4.28
2023-09-22T13:19:36.785Z,4.07
2023-09-22T13:22:08.424Z,3.90
2023-09-22T13:24:38.610Z,4.50
2023-09-22T13:27:10.108Z,4.35
2023-09-22T13:29:40.520Z,4.47
2023-09-22T13:32:10.881Z,3.97
2023-09-22T13:34:41.555Z,4.05
2023-09-22T13:37:11.246Z,3.67
2023-09-22T13:39:40.230Z,4.00
2023-09-22T13:42:12.561Z,3.55
2023-09-22T13:44:41.817Z,4.50
2023-09-22T13:47:10.641Z,3.33
2023-09-22T13:49:40.027Z,4.07
2023-09-22T13:52:09.229Z,4.25
2023-09-22T13:54:37.987Z,4.35
2023-09-22T13:57:06.890Z,3.87
2023-09-22T13:59:37.682Z,4.13
2023-09-22T14:02:08.486Z,3.90
2023-09-22T14:04:37.418Z,4.00
2023-09-22T14:07:06.251Z,4.00
2023-09-22T14:09:35.654Z,4.03
2023-09-22T14:12:04.941Z,3.80
2023-09-22T14:14:34.300Z,3.90
2023-09-22T14:17:04.733Z,3.65
2023-09-22T14:19:34.552Z,4.10
2023-09-22T14:22:04.516Z,3.90
2023-09-22T14:24:33.235Z,4.13
2023-09-22T14:27:02.005Z,4.80
2023-09-22T14:29:30.880Z,4.93
2023-09-22T14:31:59.800Z,4.80
2023-09-22T14:34:30.245Z,4.20
2023-09-22T14:36:59.129Z,4.97
2023-09-22T14:39:28.471Z,4.55
2023-09-22T14:41:57.246Z,4.85
2023-09-22T14:44:26.136Z,5.00
2023-09-22T14:46:55.777Z,4.47
2023-09-22T14:49:24.658Z,4.50
2023-09-22T14:51:55.090Z,4.32
2023-09-22T14:54:23.859Z,4.40
2023-09-22T14:56:52.638Z,4.47
2023-09-22T14:59:21.716Z,4.63
2023-09-22T15:01:50.646Z,5.15
2023-09-22T15:04:19.637Z,4.65
2023-09-22T15:06:48.555Z,5.35
2023-09-22T15:09:19.269Z,4.78
2023-09-22T15:11:48.129Z,4.37
2023-09-22T15:14:18.216Z,5.28
2023-09-22T15:16:47.007Z,4.90
2023-09-22T15:19:16.105Z,5.50
2023-09-22T15:21:44.924Z,4.80
2023-09-22T15:24:13.765Z,5.30
2023-09-22T15:26:43.998Z,4.82
2023-09-22T15:29:12.823Z,4.88
2023-09-22T15:31:42.264Z,5.28
2023-09-22T15:34:15.346Z,5.22
2023-09-22T15:36:44.454Z,5.47
2023-09-22T15:39:14.371Z,5.25
2023-09-22T15:41:45.075Z,4.68
2023-09-22T15:44:14.530Z,5.05
2023-09-22T15:46:43.837Z,5.47
2023-09-22T15:49:13.208Z,5.50
2023-09-22T15:51:41.943Z,5.10
2023-09-22T15:54:12.715Z,5.18
2023-09-22T15:56:43.810Z,5.75
2023-09-22T15:59:13.950Z,5.63
2023-09-22T16:01:54.858Z,6.47
2023-09-22T16:04:23.735Z,5.88
2023-09-22T16:06:54.786Z,5.60
2023-09-22T16:09:26.908Z,5.55
2023-09-22T16:11:57.344Z,5.00
2023-09-22T16:14:27.605Z,5.43
2023-09-22T16:16:57.700Z,5.75
2023-09-22T16:19:26.774Z,5.22
2023-09-22T16:21:55.898Z,6.95
2023-09-22T16:24:24.733Z,5.30
2023-09-22T16:26:53.555Z,5.70
2023-09-22T16:29:27.669Z,6.43
2023-09-22T16:31:58.854Z,6.35
2023-09-22T16:34:30.503Z,6.25
2023-09-22T16:36:59.646Z,5.85
2023-09-22T16:39:28.518Z,5.73
2023-09-22T16:41:57.515Z,6.25
2023-09-22T16:44:26.286Z,6.63
2023-09-22T16:46:55.138Z,6.28
2023-09-22T16:49:25.585Z,6.07
2023-09-22T16:51:54.662Z,6.87
2023-09-22T16:54:23.347Z,6.45
2023-09-22T16:56:52.678Z,6.15
2023-09-22T16:59:22.444Z,6.57
2023-09-22T17:01:51.482Z,5.85
2023-09-22T17:04:22.564Z,6.73
2023-09-22T17:06:52.706Z,6.70
2023-09-22T17:09:21.565Z,5.75
2023-09-22T17:11:50.423Z,6.47
2023-09-22T17:14:53.291Z,6.75
2023-09-22T17:17:23.844Z,6.70
2023-09-22T17:19:57.084Z,6.30
2023-09-22T17:22:29.016Z,6.60
2023-09-22T17:24:57.974Z,7.07
2023-09-22T17:27:27.160Z,6.82
2023-09-22T17:29:56.145Z,6.67
2023-09-22T17:32:32.451Z,6.95
2023-09-22T17:35:03.233Z,6.43
2023-09-22T17:37:38.434Z,5.88
2023-09-22T17:40:13.482Z,6.63
2023-09-22T17:42:42.428Z,6.30
2023-09-22T17:45:22.430Z,7.45
2023-09-22T17:47:51.851Z,6.50
2023-09-22T17:50:21.095Z,7.30
2023-09-22T17:52:52.904Z,6.43
2023-09-22T17:55:22.917Z,6.47
2023-09-22T17:57:51.712Z,6.53
2023-09-22T18:00:25.198Z,6.05
2023-09-22T18:02:58.050Z,5.70
2023-09-22T18:05:28.021Z,6.30
2023-09-22T18:07:58.640Z,6.10
2023-09-22T18:10:28.850Z,5.88
2023-09-22T18:13:10.194Z,6.57
2023-09-22T18:15:39.356Z,5.95
2023-09-22T18:18:12.337Z,6.28
2023-09-22T18:20:41.650Z,6.23
2023-09-22T18:23:12.852Z,6.15
2023-09-22T18:25:42.662Z,6.32
2023-09-22T18:28:11.654Z,5.97
2023-09-22T18:30:41.596Z,6.13
2023-09-22T18:33:11.006Z,6.50
2023-09-22T18:35:40.739Z,6.72
2023-09-22T18:38:09.796Z,6.70
2023-09-22T18:40:39.996Z,6.40
2023-09-22T18:43:09.755Z,6.45
2023-09-22T18:45:39.883Z,6.80
2023-09-22T18:48:09.268Z,6.22
2023-09-22T18:50:38.687Z,6.15
2023-09-22T18:53:07.884Z,6.50
2023-09-22T18:55:38.044Z,6.60
2023-09-22T18:58:13.976Z,6.97
2023-09-22T19:00:50.793Z,6.40
2023-09-22T19:03:24.423Z,6.85
2023-09-22T19:05:55.130Z,6.18
2023-09-22T19:08:27.473Z,7.07
2023-09-22T19:11:07.146Z,6.33
2023-09-22T19:14:03.018Z,6.32
2023-09-22T19:16:35.738Z,6.63
2023-09-22T19:19:05.457Z,5.97
2023-09-22T19:21:41.019Z,6.88
2023-09-22T19:24:16.264Z,5.90
2023-09-22T19:29:38.392Z,6.13
2023-09-22T19:32:07.241Z,6.45
2023-09-22T19:34:42.723Z,6.85
2023-09-22T19:37:13.392Z,6.17
2023-09-22T19:39:42.442Z,6.60
2023-09-22T19:42:11.902Z,6.63
2023-09-22T19:44:42.109Z,7.22
2023-09-22T19:47:12.721Z,6.72
2023-09-22T19:49:41.463Z,6.60
2023-09-22T19:52:11.131Z,6.28
2023-09-22T19:54:40.893Z,7.00
2023-09-22T19:57:13.140Z,6.15
2023-09-22T19:59:48.332Z,7.07
2023-09-22T20:02:18.393Z,6.03
2023-09-22T20:04:47.753Z,6.40
2023-09-22T20:07:16.772Z,6.65
2023-09-22T20:09:46.216Z,6.28
2023-09-22T20:12:15.483Z,6.47
2023-09-22T20:14:47.436Z,6.97
2023-09-22T20:17:16.333Z,7.20
2023-09-22T20:19:46.573Z,6.57
2023-09-22T20:22:15.625Z,7.28
2023-09-22T20:24:44.381Z,6.35
2023-09-22T20:27:13.277Z,6.47
2023-09-22T20:29:42.140Z,6.90
2023-09-22T20:32:13.329Z,6.78
2023-09-22T20:34:42.344Z,7.07
2023-09-22T20:37:11.776Z,6.88
2023-09-22T20:39:40.695Z,7.30
2023-09-22T20:42:09.410Z,7.60
2023-09-22T20:44:38.205Z,6.50
2023-09-22T20:47:11.290Z,6.35
2023-09-22T20:49:43.428Z,7.18
2023-09-22T20:52:12.339Z,7.40
2023-09-22T20:54:41.131Z,7.30
2023-09-22T20:57:10.021Z,6.72
2023-09-22T20:59:40.203Z,6.85
2023-09-22T21:02:11.824Z,6.53
2023-09-22T21:04:42.169Z,6.90
2023-09-22T21:07:11.641Z,6.43
2023-09-22T21:09:40.537Z,6.45
2023-09-22T21:12:09.653Z,6.22
2023-09-22T21:14:38.440Z,6.82
2023-09-22T21:17:07.356Z,7.07
2023-09-22T21:19:36.269Z,6.10
2023-09-22T21:22:06.365Z,6.38
2023-09-22T21:24:35.163Z,6.03
2023-09-22T21:27:04.990Z,6.40
2023-09-22T21:29:34.031Z,6.43
2023-09-22T21:32:02.796Z,6.40
2023-09-22T21:34:31.666Z,6.78
2023-09-22T21:37:00.506Z,7.15
2023-09-22T21:39:31.023Z,6.20
2023-09-22T21:41:59.756Z,6.23
2023-09-22T21:44:28.525Z,6.00
2023-09-22T21:46:57.346Z,6.38
2023-09-22T21:49:26.060Z,6.13
2023-09-22T21:51:54.872Z,6.05
2023-09-22T21:54:23.843Z,6.30
2023-09-22T21:56:53.934Z,6.85
2023-09-22T21:59:23.001Z,6.57
2023-09-22T22:01:52.048Z,6.00
2023-09-22T22:04:20.884Z,6.00
2023-09-22T22:06:52.217Z,6.07
2023-09-22T22:09:21.326Z,6.15
2023-09-22T22:11:50.691Z,6.15
2023-09-22T22:14:20.949Z,5.95
2023-09-22T22:16:50.588Z,5.97
2023-09-22T22:19:20.752Z,6.03
2023-09-22T22:21:51.344Z,6.10
2023-09-22T22:24:22.895Z,6.28
2023-09-22T22:26:53.272Z,6.18
2023-09-22T22:29:23.506Z,5.93
2023-09-22T22:31:52.453Z,5.30
2023-09-22T22:34:22.383Z,6.38
2023-09-22T22:36:52.143Z,6.10
2023-09-22T22:39:21.107Z,5.88
2023-09-22T22:41:49.874Z,6.07
2023-09-22T22:44:19.204Z,6.37
2023-09-22T22:46:50.329Z,5.63
2023-09-22T22:49:19.145Z,5.53
2023-09-22T22:51:48.377Z,6.03
2023-09-22T22:54:17.184Z,5.70
2023-09-22T22:56:45.948Z,5.63
2023-09-22T22:59:15.335Z,6.00
2023-09-22T23:01:45.250Z,5.55
2023-09-22T23:04:16.165Z,6.25
2023-09-22T23:06:45.026Z,5.78
2023-09-22T23:09:15.628Z,5.97
2023-09-22T23:11:45.347Z,5.65
2023-09-22T23:14:18.616Z,5.70
2023-09-22T23:16:49.145Z,5.97
2023-09-22T23:19:20.176Z,5.70
2023-09-22T23:21:51.882Z,5.53
2023-09-22T23:24:20.654Z,5.75
2023-09-22T23:26:49.467Z,5.97
2023-09-22T23:29:18.242Z,5.43
2023-09-22T23:31:47.297Z,5.60
2023-09-22T23:34:17.282Z,5.17
2023-09-22T23:36:48.748Z,6.72
2023-09-22T23:39:17.760Z,6.00
2023-09-22T23:41:46.532Z,5.90
2023-09-22T23:44:15.298Z,5.93
2023-09-22T23:46:45.371Z,5.63
2023-09-22T23:49:16.020Z,5.25
2023-09-22T23:51:46.969Z,5.93
2023-09-22T23:54:16.999Z,5.23
2023-09-22T23:56:46.814Z,5.78
2023-09-22T23:59:15.587Z,5.35
